createdAt,value
2022-08-28T00:00:30.214Z,0.00
2022-08-28T00:01:30.199Z,0.00
2022-08-28T00:02:30.234Z,0.00
2022-08-28T00:03:30.400Z,0.00
2022-08-28T00:04:30.212Z,0.00
2022-08-28T00:05:30.166Z,0.00
2022-08-28T00:06:30.137Z,0.00
2022-08-28T00:07:30.113Z,0.00
2022-08-28T00:08:30.117Z,0.00
2022-08-28T00:09:30.091Z,0.00
2022-08-28T00:10:30.101Z,0.00
2022-08-28T00:11:30.067Z,0.00
2022-08-28T00:12:30.058Z,0.00
2022-08-28T00:13:30.057Z,0.00
2022-08-28T00:14:30.067Z,0.00
2022-08-28T00:15:30.030Z,0.00
2022-08-28T00:16:30.127Z,0.00
2022-08-28T00:17:29.999Z,0.00
2022-08-28T00:18:30.001Z,0.00
2022-08-28T00:19:30.000Z,0.00
2022-08-28T00:20:29.969Z,0.00
2022-08-28T00:21:29.950Z,0.00
2022-08-28T00:22:29.951Z,0.00
2022-08-28T00:23:38.802Z,0.00
2022-08-28T00:24:30.941Z,0.00
2022-08-28T00:25:29.902Z,0.00
2022-08-28T00:26:29.893Z,0.00
2022-08-28T00:27:29.881Z,0.00
2022-08-28T00:28:29.874Z,0.00
2022-08-28T00:29:29.885Z,0.00
2022-08-28T00:30:29.890Z,0.00
2022-08-28T00:31:29.874Z,0.00
2022-08-28T00:32:29.826Z,0.00
2022-08-28T00:33:29.818Z,0.00
2022-08-28T00:34:33.073Z,0.00
2022-08-28T00:35:29.787Z,0.00
2022-08-28T00:36:29.787Z,0.00
2022-08-28T00:37:29.776Z,0.00
2022-08-28T00:38:29.769Z,0.00
2022-08-28T00:39:29.758Z,0.00
2022-08-28T00:40:32.384Z,0.00
2022-08-28T00:41:29.730Z,0.00
2022-08-28T00:42:29.710Z,0.00
2022-08-28T00:43:29.700Z,0.00
2022-08-28T00:44:29.709Z,0.00
2022-08-28T00:45:29.678Z,0.00
2022-08-28T00:46:29.705Z,0.00
2022-08-28T00:47:29.652Z,0.00
2022-08-28T00:48:29.652Z,0.00
2022-08-28T00:49:29.660Z,0.00
2022-08-28T00:50:29.631Z,0.00
2022-08-28T00:51:29.610Z,0.00
2022-08-28T00:52:29.604Z,0.00
2022-08-28T00:53:30.074Z,0.00
2022-08-28T00:54:29.602Z,0.00
2022-08-28T00:55:29.562Z,0.00
2022-08-28T00:56:29.555Z,0.00
2022-08-28T00:57:29.536Z,0.00
2022-08-28T00:58:29.532Z,0.00
2022-08-28T00:59:29.536Z,0.00
2022-08-28T01:00:29.525Z,0.00
2022-08-28T01:01:29.509Z,0.00
2022-08-28T01:02:29.553Z,0.00
2022-08-28T01:03:29.479Z,0.00
2022-08-28T01:04:29.487Z,0.00
2022-08-28T01:05:29.448Z,0.00
2022-08-28T01:06:29.465Z,0.00
2022-08-28T01:07:29.425Z,0.00
2022-08-28T01:08:30.321Z,0.00
2022-08-28T01:09:29.420Z,0.00
2022-08-28T01:10:29.403Z,0.00
2022-08-28T01:11:29.381Z,0.00
2022-08-28T01:12:29.372Z,0.00
2022-08-28T01:13:29.361Z,0.00
2022-08-28T01:14:29.384Z,0.00
2022-08-28T01:15:29.403Z,0.00
2022-08-28T01:16:32.983Z,0.00
2022-08-28T01:17:30.312Z,0.00
2022-08-28T01:18:29.315Z,0.00
2022-08-28T01:19:29.314Z,0.00
2022-08-28T01:20:29.293Z,0.00
2022-08-28T01:21:29.272Z,0.00
2022-08-28T01:22:29.264Z,0.00
2022-08-28T01:23:29.251Z,0.00
2022-08-28T01:24:29.269Z,0.00
2022-08-28T01:25:29.216Z,0.00
2022-08-28T01:26:29.222Z,0.00
2022-08-28T01:27:29.196Z,0.00
2022-08-28T01:28:29.197Z,0.00
2022-08-28T01:29:29.197Z,0.00
2022-08-28T01:30:29.169Z,0.00
2022-08-28T01:31:29.228Z,0.00
2022-08-28T01:32:29.148Z,0.00
2022-08-28T01:33:29.137Z,0.00
2022-08-28T01:34:29.140Z,0.00
2022-08-28T01:35:29.121Z,0.00
2022-08-28T01:36:29.124Z,0.00
2022-08-28T01:37:29.093Z,0.00
2022-08-28T01:38:29.081Z,0.00
2022-08-28T01:39:29.078Z,0.00
2022-08-28T01:40:29.107Z,0.00
2022-08-28T01:41:29.042Z,0.00
2022-08-28T01:42:29.042Z,0.00
2022-08-28T01:43:29.032Z,0.00
2022-08-28T01:44:29.033Z,0.00
2022-08-28T01:45:29.000Z,0.00
2022-08-28T01:46:29.038Z,0.00
2022-08-28T01:47:28.973Z,0.00
2022-08-28T01:48:28.964Z,0.00
2022-08-28T01:49:28.965Z,0.00
2022-08-28T01:50:28.945Z,0.00
2022-08-28T01:51:28.933Z,0.00
2022-08-28T01:52:29.917Z,0.00
2022-08-28T01:53:32.612Z,0.00
2022-08-28T01:54:28.910Z,0.00
2022-08-28T01:55:28.876Z,0.00
2022-08-28T01:56:28.875Z,0.00
2022-08-28T01:57:28.855Z,0.00
2022-08-28T01:58:28.845Z,0.00
2022-08-28T01:59:28.847Z,0.00
2022-08-28T02:00:28.827Z,0.00
2022-08-28T02:01:28.876Z,0.00
2022-08-28T02:02:28.809Z,0.00
2022-08-28T02:03:28.790Z,0.00
2022-08-28T02:04:31.901Z,0.00
2022-08-28T02:05:28.760Z,0.00
2022-08-28T02:06:28.754Z,0.00
2022-08-28T02:07:28.739Z,0.00
2022-08-28T02:08:28.733Z,0.00
2022-08-28T02:09:28.743Z,0.00
2022-08-28T02:11:46.919Z,0.00
2022-08-28T02:12:46.264Z,0.00
2022-08-28T02:13:46.292Z,0.00
2022-08-28T02:14:46.242Z,0.00
2022-08-28T02:15:46.252Z,0.00
2022-08-28T02:16:46.214Z,0.00
2022-08-28T02:17:46.213Z,0.00
2022-08-28T02:18:46.225Z,0.00
2022-08-28T02:19:46.185Z,0.00
2022-08-28T02:20:46.176Z,0.00
2022-08-28T02:21:46.165Z,0.00
2022-08-28T02:22:46.164Z,0.00
2022-08-28T02:23:46.167Z,0.00
2022-08-28T02:24:46.128Z,0.00
2022-08-28T02:25:46.117Z,0.00
2022-08-28T02:26:46.109Z,0.00
2022-08-28T02:27:46.096Z,0.00
2022-08-28T02:28:46.106Z,0.00
2022-08-28T02:29:46.070Z,0.00
2022-08-28T02:30:46.108Z,0.00
2022-08-28T02:31:46.049Z,0.00
2022-08-28T02:32:46.050Z,0.00
2022-08-28T02:33:46.049Z,0.00
2022-08-28T02:34:46.021Z,0.00
2022-08-28T02:35:46.001Z,0.00
2022-08-28T02:36:45.992Z,0.00
2022-08-28T02:37:45.980Z,0.00
2022-08-28T02:38:45.991Z,0.00
2022-08-28T02:39:45.961Z,0.00
2022-08-28T02:40:45.954Z,0.00
2022-08-28T02:41:45.933Z,0.00
2022-08-28T02:42:45.931Z,0.00
2022-08-28T02:43:45.924Z,0.00
2022-08-28T02:44:45.894Z,0.00
2022-08-28T02:45:45.901Z,0.00
2022-08-28T02:46:45.864Z,0.00
2022-08-28T02:47:45.856Z,0.00
2022-08-28T02:48:45.877Z,0.00
2022-08-28T02:49:45.836Z,0.00
2022-08-28T02:50:45.835Z,0.00
2022-08-28T02:51:45.824Z,0.00
2022-08-28T02:52:45.817Z,0.00
2022-08-28T02:53:45.807Z,0.00
2022-08-28T02:54:45.787Z,0.00
2022-08-28T02:55:45.778Z,0.00
2022-08-28T02:56:45.766Z,0.00
2022-08-28T02:57:45.750Z,0.00
2022-08-28T02:58:45.760Z,0.00
2022-08-28T02:59:45.729Z,0.00
2022-08-28T03:00:45.720Z,0.00
2022-08-28T03:01:45.791Z,0.00
2022-08-28T03:02:45.763Z,0.00
2022-08-28T03:03:45.691Z,0.00
2022-08-28T03:04:45.672Z,0.00
2022-08-28T03:05:45.663Z,0.00
2022-08-28T03:06:45.661Z,0.00
2022-08-28T03:07:45.640Z,0.00
2022-08-28T03:08:45.644Z,0.00
2022-08-28T03:09:45.622Z,0.00
2022-08-28T03:10:45.613Z,0.00
2022-08-28T03:11:45.592Z,0.00
2022-08-28T03:12:45.584Z,0.00
2022-08-28T03:13:45.584Z,0.00
2022-08-28T03:14:45.555Z,0.00
2022-08-28T03:15:45.548Z,0.00
2022-08-28T03:16:45.585Z,0.00
2022-08-28T03:17:45.516Z,0.00
2022-08-28T03:18:45.545Z,0.00
2022-08-28T03:19:45.498Z,0.00
2022-08-28T03:20:45.495Z,0.00
2022-08-28T03:21:45.477Z,0.00
2022-08-28T03:22:45.468Z,0.00
2022-08-28T03:23:45.467Z,0.00
2022-08-28T03:24:45.450Z,0.00
2022-08-28T03:25:45.439Z,0.00
2022-08-28T03:26:45.420Z,0.00
2022-08-28T03:27:45.408Z,0.00
2022-08-28T03:28:45.422Z,0.00
2022-08-28T03:29:45.388Z,0.00
2022-08-28T03:30:45.440Z,0.00
2022-08-28T03:31:45.373Z,0.00
2022-08-28T03:32:45.362Z,0.00
2022-08-28T03:33:45.354Z,0.00
2022-08-28T03:34:45.333Z,0.00
2022-08-28T03:35:45.323Z,0.00
2022-08-28T03:36:45.312Z,0.00
2022-08-28T03:37:45.294Z,0.00
2022-08-28T03:38:45.307Z,0.00
2022-08-28T03:39:45.286Z,0.00
2022-08-28T03:40:45.265Z,0.00
2022-08-28T03:41:45.246Z,0.00
2022-08-28T03:42:53.003Z,0.00
2022-08-28T03:43:46.253Z,0.00
2022-08-28T03:44:45.217Z,0.00
2022-08-28T03:45:45.268Z,0.00
2022-08-28T03:46:45.195Z,0.00
2022-08-28T03:47:45.185Z,0.00
2022-08-28T03:48:45.178Z,0.00
2022-08-28T03:49:45.158Z,0.00
2022-08-28T03:50:45.148Z,0.00
2022-08-28T03:51:45.139Z,0.00
2022-08-28T03:52:45.120Z,0.00
2022-08-28T03:53:45.120Z,0.00
2022-08-28T03:54:45.109Z,0.00
2022-08-28T03:55:45.089Z,0.00
2022-08-28T03:56:45.082Z,0.00
2022-08-28T03:57:45.083Z,0.00
2022-08-28T03:58:45.053Z,0.00
2022-08-28T03:59:45.041Z,0.00
2022-08-28T04:00:45.033Z,0.00
2022-08-28T04:01:45.077Z,0.00
2022-08-28T04:02:45.033Z,0.00
2022-08-28T04:03:45.049Z,0.00
2022-08-28T04:04:44.995Z,0.00
2022-08-28T04:05:44.974Z,0.00
2022-08-28T04:06:44.977Z,0.00
2022-08-28T04:07:44.976Z,0.00
2022-08-28T04:08:44.945Z,0.00
2022-08-28T04:09:44.927Z,0.00
2022-08-28T04:10:44.926Z,0.00
2022-08-28T04:11:44.906Z,0.00
2022-08-28T04:12:44.918Z,0.00
2022-08-28T04:13:44.889Z,0.00
2022-08-28T04:14:44.869Z,0.00
2022-08-28T04:15:44.876Z,0.00
2022-08-28T04:16:44.883Z,0.00
2022-08-28T04:17:44.858Z,0.00
2022-08-28T04:18:44.841Z,0.00
2022-08-28T04:19:44.811Z,0.00
2022-08-28T04:20:46.421Z,0.00
2022-08-28T04:21:44.790Z,0.00
2022-08-28T04:22:45.540Z,0.00
2022-08-28T04:23:44.762Z,0.00
2022-08-28T04:24:44.763Z,0.00
2022-08-28T04:25:44.742Z,0.00
2022-08-28T04:26:44.733Z,0.00
2022-08-28T04:27:44.741Z,0.00
2022-08-28T04:28:44.714Z,0.00
2022-08-28T04:29:44.699Z,0.00
2022-08-28T04:30:44.696Z,0.00
2022-08-28T04:31:44.736Z,0.00
2022-08-28T04:32:44.675Z,0.00
2022-08-28T04:33:44.666Z,0.00
2022-08-28T04:34:44.644Z,0.00
2022-08-28T04:35:44.637Z,0.00
2022-08-28T04:36:44.617Z,0.00
2022-08-28T04:37:44.628Z,0.00
2022-08-28T04:38:44.595Z,0.00
2022-08-28T04:39:44.588Z,0.00
2022-08-28T04:40:44.578Z,0.00
2022-08-28T04:41:44.568Z,0.00
2022-08-28T04:42:44.569Z,0.00
2022-08-28T04:43:44.539Z,0.00
2022-08-28T04:44:44.528Z,0.00
2022-08-28T04:45:44.563Z,0.00
2022-08-28T04:46:44.512Z,4.00
2022-08-28T04:47:44.510Z,4.00
2022-08-28T04:48:44.481Z,4.00
2022-08-28T04:49:44.471Z,4.00
2022-08-28T04:50:44.456Z,4.00
2022-08-28T04:51:44.452Z,4.00
2022-08-28T04:52:44.453Z,4.00
2022-08-28T04:53:44.434Z,4.00
2022-08-28T04:54:44.413Z,4.00
2022-08-28T04:55:54.196Z,4.00
2022-08-28T04:56:45.394Z,4.00
2022-08-28T04:57:44.405Z,4.00
2022-08-28T04:58:44.366Z,4.00
2022-08-28T04:59:44.363Z,4.00
2022-08-28T05:00:44.364Z,4.00
2022-08-28T05:01:44.346Z,4.00
2022-08-28T05:02:44.336Z,4.00
2022-08-28T05:03:44.314Z,4.00
2022-08-28T05:04:44.297Z,4.00
2022-08-28T05:05:44.296Z,4.00
2022-08-28T05:06:44.278Z,4.00
2022-08-28T05:07:44.999Z,4.00
2022-08-28T05:08:44.257Z,4.00
2022-08-28T05:09:44.246Z,4.00
2022-08-28T05:10:44.229Z,4.00
2022-08-28T05:11:44.220Z,4.00
2022-08-28T05:12:44.229Z,4.00
2022-08-28T05:13:44.200Z,4.00
2022-08-28T05:14:44.182Z,4.00
2022-08-28T05:15:44.180Z,0.00
2022-08-28T05:16:44.226Z,0.00
2022-08-28T05:17:44.173Z,0.00
2022-08-28T05:18:44.132Z,0.00
2022-08-28T05:19:44.131Z,0.00
2022-08-28T05:20:44.114Z,0.00
2022-08-28T05:21:44.113Z,4.00
2022-08-28T05:22:44.112Z,4.00
2022-08-28T05:23:44.084Z,4.00
2022-08-28T05:24:44.074Z,4.00
2022-08-28T05:25:44.064Z,4.00
2022-08-28T05:26:44.046Z,4.00
2022-08-28T05:27:44.055Z,4.00
2022-08-28T05:28:44.033Z,4.00
2022-08-28T05:29:44.016Z,4.00
2022-08-28T05:30:43.999Z,4.00
2022-08-28T05:31:44.075Z,4.00
2022-08-28T05:32:43.997Z,4.00
2022-08-28T05:33:43.987Z,4.00
2022-08-28T05:34:43.958Z,4.00
2022-08-28T05:35:43.949Z,8.00
2022-08-28T05:36:43.929Z,4.00
2022-08-28T05:37:43.948Z,8.00
2022-08-28T05:38:43.911Z,8.00
2022-08-28T05:39:44.682Z,8.00
2022-08-28T05:40:43.881Z,8.00
2022-08-28T05:41:43.880Z,8.00
2022-08-28T05:42:43.879Z,12.00
2022-08-28T05:43:43.851Z,8.00
2022-08-28T05:44:43.841Z,8.00
2022-08-28T05:45:43.905Z,12.00
2022-08-28T05:46:43.814Z,12.00
2022-08-28T05:47:43.831Z,8.00
2022-08-28T05:48:43.792Z,12.00
2022-08-28T05:49:43.783Z,12.00
2022-08-28T05:50:47.460Z,12.00
2022-08-28T05:51:43.790Z,16.00
2022-08-28T05:52:43.765Z,12.00
2022-08-28T05:53:43.745Z,12.00
2022-08-28T05:54:43.733Z,12.00
2022-08-28T05:55:43.716Z,12.00
2022-08-28T05:56:43.729Z,12.00
2022-08-28T05:57:43.717Z,12.00
2022-08-28T05:58:43.685Z,12.00
2022-08-28T05:59:43.667Z,12.00
2022-08-28T06:00:43.660Z,16.00
2022-08-28T06:01:43.694Z,16.00
2022-08-28T06:02:43.648Z,16.00
2022-08-28T06:03:43.683Z,16.00
2022-08-28T06:04:43.609Z,20.00
2022-08-28T06:05:43.609Z,16.00
2022-08-28T06:06:43.597Z,16.00
2022-08-28T06:07:43.602Z,20.00
2022-08-28T06:08:56.144Z,16.00
2022-08-28T06:09:44.561Z,20.00
2022-08-28T06:10:43.541Z,20.00
2022-08-28T06:11:44.655Z,20.00
2022-08-28T06:12:43.542Z,24.00
2022-08-28T06:13:43.842Z,20.00
2022-08-28T06:14:43.492Z,20.00
2022-08-28T06:15:43.497Z,24.00
2022-08-28T06:16:43.473Z,24.00
2022-08-28T06:17:43.482Z,24.00
2022-08-28T06:18:43.445Z,20.00
2022-08-28T06:19:43.443Z,24.00
2022-08-28T06:20:43.425Z,24.00
2022-08-28T06:21:43.417Z,24.00
2022-08-28T06:22:43.416Z,24.00
2022-08-28T06:23:44.176Z,28.00
2022-08-28T06:24:43.378Z,28.00
2022-08-28T06:25:43.373Z,24.00
2022-08-28T06:26:43.356Z,28.00
2022-08-28T06:27:43.367Z,28.00
2022-08-28T06:28:43.336Z,28.00
2022-08-28T06:29:43.330Z,28.00
2022-08-28T06:30:52.852Z,28.00
2022-08-28T06:31:44.344Z,28.00
2022-08-28T06:32:43.299Z,32.00
2022-08-28T06:33:43.280Z,28.00
2022-08-28T06:34:43.260Z,32.00
2022-08-28T06:35:43.260Z,32.00
2022-08-28T06:36:43.240Z,32.00
2022-08-28T06:37:43.250Z,32.00
2022-08-28T06:38:43.211Z,36.00
2022-08-28T06:39:43.209Z,36.00
2022-08-28T06:40:43.182Z,40.00
2022-08-28T06:41:43.229Z,40.00
2022-08-28T06:42:43.193Z,40.00
2022-08-28T06:43:43.163Z,40.00
2022-08-28T06:44:43.154Z,40.00
2022-08-28T06:45:43.211Z,40.00
2022-08-28T06:46:43.136Z,40.00
2022-08-28T06:47:43.134Z,40.00
2022-08-28T06:48:43.104Z,40.00
2022-08-28T06:49:43.097Z,40.00
2022-08-28T06:50:43.084Z,40.00
2022-08-28T06:51:43.076Z,40.00
2022-08-28T06:52:43.076Z,44.00
2022-08-28T06:53:43.057Z,40.00
2022-08-28T06:54:55.359Z,44.00
2022-08-28T06:55:44.045Z,40.00
2022-08-28T06:56:43.016Z,40.00
2022-08-28T06:57:43.019Z,40.00
2022-08-28T06:58:43.000Z,44.00
2022-08-28T06:59:43.990Z,40.00
2022-08-28T07:00:43.000Z,40.00
2022-08-28T07:01:42.979Z,44.00
2022-08-28T07:02:43.011Z,40.00
2022-08-28T07:03:44.539Z,40.00
2022-08-28T07:04:42.921Z,48.00
2022-08-28T07:05:42.930Z,48.00
2022-08-28T07:06:42.921Z,44.00
2022-08-28T07:07:42.892Z,48.00
2022-08-28T07:08:42.873Z,48.00
2022-08-28T07:09:42.875Z,48.00
2022-08-28T07:10:42.854Z,52.00
2022-08-28T07:11:42.864Z,52.00
2022-08-28T07:12:42.825Z,52.00
2022-08-28T07:13:42.822Z,52.00
2022-08-28T07:14:42.807Z,52.00
2022-08-28T07:15:42.837Z,52.00
2022-08-28T07:16:43.547Z,48.00
2022-08-28T07:17:42.777Z,52.00
2022-08-28T07:18:42.766Z,52.00
2022-08-28T07:19:42.747Z,56.00
2022-08-28T07:20:42.725Z,52.00
2022-08-28T07:21:42.728Z,56.00
2022-08-28T07:22:42.698Z,56.00
2022-08-28T07:23:42.698Z,52.00
2022-08-28T07:24:42.690Z,52.00
2022-08-28T07:25:42.681Z,56.00
2022-08-28T07:26:42.688Z,56.00
2022-08-28T07:27:42.659Z,56.00
2022-08-28T07:28:42.655Z,56.00
2022-08-28T07:29:42.641Z,60.00
2022-08-28T07:30:42.718Z,56.00
2022-08-28T07:31:42.631Z,60.00
2022-08-28T07:32:42.602Z,60.00
2022-08-28T07:33:42.595Z,64.00
2022-08-28T07:34:42.591Z,64.00
2022-08-28T07:35:42.601Z,64.00
2022-08-28T07:36:42.564Z,64.00
2022-08-28T07:37:42.552Z,64.00
2022-08-28T07:38:42.533Z,64.00
2022-08-28T07:39:42.525Z,64.00
2022-08-28T07:40:42.525Z,60.00
2022-08-28T07:41:42.613Z,64.00
2022-08-28T07:42:42.559Z,64.00
2022-08-28T07:43:42.475Z,64.00
2022-08-28T07:44:42.465Z,60.00
2022-08-28T07:45:42.518Z,60.00
2022-08-28T07:46:42.448Z,64.00
2022-08-28T07:47:42.435Z,60.00
2022-08-28T07:48:42.418Z,64.00
2022-08-28T07:49:42.408Z,64.00
2022-08-28T07:50:42.409Z,64.00
2022-08-28T07:51:42.387Z,64.00
2022-08-28T07:52:42.379Z,68.00
2022-08-28T07:53:42.370Z,68.00
2022-08-28T07:54:42.349Z,68.00
2022-08-28T07:55:42.350Z,68.00
2022-08-28T07:56:42.331Z,68.00
2022-08-28T07:57:42.322Z,68.00
2022-08-28T07:58:42.310Z,68.00
2022-08-28T07:59:42.474Z,72.00
2022-08-28T08:00:42.292Z,72.00
2022-08-28T08:01:42.337Z,72.00
2022-08-28T08:02:42.253Z,68.00
2022-08-28T08:03:42.305Z,72.00
2022-08-28T08:04:42.232Z,72.00
2022-08-28T08:05:42.243Z,72.00
2022-08-28T08:06:42.213Z,76.00
2022-08-28T08:07:42.205Z,80.00
2022-08-28T08:08:42.194Z,76.00
2022-08-28T08:09:42.186Z,80.00
2022-08-28T08:10:42.186Z,80.00
2022-08-28T08:11:42.165Z,80.00
2022-08-28T08:12:42.225Z,80.00
2022-08-28T08:13:42.148Z,84.00
2022-08-28T08:14:42.127Z,84.00
2022-08-28T08:15:42.174Z,84.00
2022-08-28T08:16:42.098Z,84.00
2022-08-28T08:17:42.098Z,80.00
2022-08-28T08:18:42.077Z,76.00
2022-08-28T08:19:42.070Z,76.00
2022-08-28T08:20:42.081Z,76.00
2022-08-28T08:21:42.041Z,72.00
2022-08-28T08:22:42.029Z,76.00
2022-08-28T08:23:42.032Z,72.00
2022-08-28T08:24:42.011Z,72.00
2022-08-28T08:25:42.012Z,76.00
2022-08-28T08:26:41.998Z,72.00
2022-08-28T08:27:43.283Z,68.00
2022-08-28T08:28:41.964Z,68.00
2022-08-28T08:29:41.952Z,68.00
2022-08-28T08:30:42.039Z,68.00
2022-08-28T08:31:43.937Z,68.00
2022-08-28T08:32:41.910Z,64.00
2022-08-28T08:33:41.904Z,60.00
2022-08-28T08:34:41.884Z,60.00
2022-08-28T08:35:41.946Z,64.00
2022-08-28T08:36:41.863Z,60.00
2022-08-28T08:37:41.943Z,56.00
2022-08-28T08:38:41.836Z,60.00
2022-08-28T08:39:41.836Z,60.00
2022-08-28T08:40:41.901Z,64.00
2022-08-28T08:41:41.818Z,68.00
2022-08-28T08:42:41.798Z,68.00
2022-08-28T08:43:41.788Z,68.00
2022-08-28T08:44:41.778Z,64.00
2022-08-28T08:45:42.529Z,68.00
2022-08-28T08:46:41.830Z,68.00
2022-08-28T08:47:42.529Z,72.00
2022-08-28T08:48:41.737Z,72.00
2022-08-28T08:49:41.722Z,64.00
2022-08-28T08:50:41.729Z,68.00
2022-08-28T08:51:41.700Z,68.00
2022-08-28T08:52:42.601Z,72.00
2022-08-28T08:53:41.671Z,72.00
2022-08-28T08:54:41.669Z,76.00
2022-08-28T08:55:41.662Z,72.00
2022-08-28T08:56:41.652Z,72.00
2022-08-28T08:57:41.634Z,68.00
2022-08-28T08:58:41.629Z,68.00
2022-08-28T08:59:42.391Z,72.00
2022-08-28T09:00:41.623Z,68.00
2022-08-28T09:01:42.434Z,68.00
2022-08-28T09:02:41.576Z,64.00
2022-08-28T09:03:44.291Z,64.00
2022-08-28T09:04:41.555Z,68.00
2022-08-28T09:05:41.546Z,72.00
2022-08-28T09:06:41.526Z,76.00
2022-08-28T09:07:43.007Z,76.00
2022-08-28T09:08:41.508Z,76.00
2022-08-28T09:09:41.758Z,76.00
2022-08-28T09:10:41.521Z,76.00
2022-08-28T09:11:42.248Z,76.00
2022-08-28T09:12:41.459Z,80.00
2022-08-28T09:13:42.229Z,72.00
2022-08-28T09:14:41.459Z,72.00
2022-08-28T09:15:42.776Z,68.00
2022-08-28T09:16:41.414Z,68.00
2022-08-28T09:17:41.490Z,68.00
2022-08-28T09:18:41.389Z,68.00
2022-08-28T09:19:42.140Z,68.00
2022-08-28T09:20:41.362Z,68.00
2022-08-28T09:21:41.351Z,68.00
2022-08-28T09:22:41.342Z,72.00
2022-08-28T09:23:41.322Z,68.00
2022-08-28T09:24:41.350Z,68.00
2022-08-28T09:25:41.303Z,72.00
2022-08-28T09:26:41.300Z,68.00
2022-08-28T09:27:41.292Z,72.00
2022-08-28T09:28:41.283Z,80.00
2022-08-28T09:29:41.275Z,84.00
2022-08-28T09:30:41.292Z,84.00
2022-08-28T09:31:41.250Z,88.00
2022-08-28T09:32:41.234Z,84.00
2022-08-28T09:33:41.946Z,80.00
2022-08-28T09:34:41.217Z,88.00
2022-08-28T09:35:41.968Z,92.00
2022-08-28T09:36:41.186Z,96.00
2022-08-28T09:37:41.201Z,96.00
2022-08-28T09:38:41.162Z,92.00
2022-08-28T09:39:41.921Z,88.00
2022-08-28T09:40:41.162Z,92.00
2022-08-28T09:41:41.201Z,96.00
2022-08-28T09:42:41.120Z,92.00
2022-08-28T09:43:41.160Z,92.00
2022-08-28T09:44:41.110Z,96.00
2022-08-28T09:45:41.071Z,92.00
2022-08-28T09:46:41.142Z,96.00
2022-08-28T09:47:46.492Z,88.00
2022-08-28T09:48:42.862Z,80.00
2022-08-28T09:49:41.043Z,100.00
2022-08-28T09:50:41.031Z,100.00
2022-08-28T09:51:41.004Z,84.00
2022-08-28T09:52:41.002Z,84.00
2022-08-28T09:53:40.993Z,72.00
2022-08-28T09:54:40.995Z,92.00
2022-08-28T09:55:40.955Z,96.00
2022-08-28T09:56:40.946Z,84.00
2022-08-28T09:57:41.768Z,96.00
2022-08-28T09:58:40.935Z,80.00
2022-08-28T09:59:40.936Z,100.00
2022-08-28T10:00:40.906Z,100.00
2022-08-28T10:01:40.941Z,84.00
2022-08-28T10:02:40.889Z,72.00
2022-08-28T10:03:40.867Z,76.00
2022-08-28T10:04:40.913Z,80.00
2022-08-28T10:05:40.841Z,76.00
2022-08-28T10:06:43.697Z,80.00
2022-08-28T10:07:40.894Z,76.00
2022-08-28T10:08:40.821Z,76.00
2022-08-28T10:09:46.773Z,88.00
2022-08-28T10:10:41.790Z,92.00
2022-08-28T10:11:44.300Z,76.00
2022-08-28T10:12:40.831Z,80.00
2022-08-28T10:13:40.760Z,80.00
2022-08-28T10:14:40.770Z,76.00
2022-08-28T10:15:43.340Z,72.00
2022-08-28T10:16:40.721Z,72.00
2022-08-28T10:17:40.726Z,72.00
2022-08-28T10:18:40.703Z,84.00
2022-08-28T10:19:40.713Z,76.00
2022-08-28T10:20:40.676Z,72.00
2022-08-28T10:21:40.654Z,72.00
2022-08-28T10:22:40.654Z,72.00
2022-08-28T10:23:40.636Z,68.00
2022-08-28T10:24:40.655Z,68.00
2022-08-28T10:25:40.614Z,68.00
2022-08-28T10:26:40.614Z,72.00
2022-08-28T10:27:40.698Z,68.00
2022-08-28T10:28:40.585Z,72.00
2022-08-28T10:29:40.587Z,64.00
2022-08-28T10:30:40.596Z,68.00
2022-08-28T10:31:40.546Z,68.00
2022-08-28T10:32:40.537Z,68.00
2022-08-28T10:33:40.518Z,72.00
2022-08-28T10:34:40.529Z,72.00
2022-08-28T10:35:40.499Z,60.00
2022-08-28T10:36:40.490Z,56.00
2022-08-28T10:37:40.479Z,76.00
2022-08-28T10:38:40.470Z,92.00
2022-08-28T10:39:40.589Z,68.00
2022-08-28T10:40:40.565Z,68.00
2022-08-28T10:41:40.431Z,76.00
2022-08-28T10:42:40.431Z,92.00
2022-08-28T10:43:40.411Z,100.00
2022-08-28T10:44:40.425Z,96.00
2022-08-28T10:45:40.383Z,84.00
2022-08-28T10:46:40.393Z,72.00
2022-08-28T10:47:40.364Z,72.00
2022-08-28T10:48:40.353Z,68.00
2022-08-28T10:49:40.355Z,72.00
2022-08-28T10:50:40.338Z,64.00
2022-08-28T10:51:43.656Z,64.00
2022-08-28T10:52:40.305Z,64.00
2022-08-28T10:53:40.305Z,64.00
2022-08-28T10:54:40.322Z,60.00
2022-08-28T10:55:40.267Z,60.00
2022-08-28T10:56:40.269Z,64.00
2022-08-28T10:57:40.256Z,68.00
2022-08-28T10:58:40.237Z,72.00
2022-08-28T10:59:42.260Z,76.00
2022-08-28T11:00:40.999Z,72.00
2022-08-28T11:01:40.291Z,76.00
2022-08-28T11:02:40.293Z,72.00
2022-08-28T11:03:40.178Z,68.00
2022-08-28T11:04:40.190Z,68.00
2022-08-28T11:05:40.151Z,68.00
2022-08-28T11:06:40.151Z,64.00
2022-08-28T11:07:40.921Z,68.00
2022-08-28T11:08:40.126Z,88.00
2022-08-28T11:09:40.122Z,92.00
2022-08-28T11:10:40.111Z,92.00
2022-08-28T11:11:40.084Z,92.00
2022-08-28T11:12:40.083Z,72.00
2022-08-28T11:13:40.073Z,76.00
2022-08-28T11:14:47.747Z,72.00
2022-08-28T11:15:41.042Z,64.00
2022-08-28T11:16:40.326Z,68.00
2022-08-28T11:17:40.025Z,64.00
2022-08-28T11:18:40.015Z,80.00
2022-08-28T11:19:43.976Z,68.00
2022-08-28T11:20:40.986Z,76.00
2022-08-28T11:21:39.975Z,72.00
2022-08-28T11:22:39.984Z,88.00
2022-08-28T11:23:40.728Z,60.00
2022-08-28T11:24:41.470Z,64.00
2022-08-28T11:25:39.927Z,68.00
2022-08-28T11:26:39.928Z,84.00
2022-08-28T11:27:39.909Z,64.00
2022-08-28T11:28:39.999Z,88.00
2022-08-28T11:29:39.889Z,68.00
2022-08-28T11:30:39.907Z,60.00
2022-08-28T11:31:39.878Z,56.00
2022-08-28T11:32:41.379Z,60.00
2022-08-28T11:33:40.837Z,60.00
2022-08-28T11:34:39.841Z,60.00
2022-08-28T11:35:40.600Z,60.00
2022-08-28T11:36:39.802Z,80.00
2022-08-28T11:37:39.788Z,84.00
2022-08-28T11:38:39.782Z,84.00
2022-08-28T11:39:39.782Z,84.00
2022-08-28T11:40:39.806Z,88.00
2022-08-28T11:41:39.797Z,84.00
2022-08-28T11:42:39.759Z,68.00
2022-08-28T11:43:39.714Z,56.00
2022-08-28T11:44:39.725Z,52.00
2022-08-28T11:45:39.967Z,56.00
2022-08-28T11:46:39.747Z,56.00
2022-08-28T11:47:39.675Z,84.00
2022-08-28T11:48:39.674Z,84.00
2022-08-28T11:49:39.675Z,84.00
2022-08-28T11:50:39.644Z,84.00
2022-08-28T11:51:39.668Z,84.00
2022-08-28T11:52:39.619Z,84.00
2022-08-28T11:53:39.609Z,84.00
2022-08-28T11:54:39.608Z,84.00
2022-08-28T11:55:39.589Z,84.00
2022-08-28T11:56:39.571Z,84.00
2022-08-28T11:57:39.559Z,84.00
2022-08-28T11:58:39.559Z,84.00
2022-08-28T11:59:39.550Z,84.00
2022-08-28T12:00:39.542Z,84.00
2022-08-28T12:01:39.520Z,84.00
2022-08-28T12:02:39.644Z,84.00
2022-08-28T12:03:39.503Z,84.00
2022-08-28T12:04:39.535Z,68.00
2022-08-28T12:05:39.472Z,84.00
2022-08-28T12:06:39.474Z,80.00
2022-08-28T12:07:39.453Z,84.00
2022-08-28T12:08:39.464Z,84.00
2022-08-28T12:09:39.424Z,84.00
2022-08-28T12:10:39.424Z,84.00
2022-08-28T12:11:39.396Z,80.00
2022-08-28T12:12:39.387Z,84.00
2022-08-28T12:13:39.404Z,80.00
2022-08-28T12:14:39.367Z,80.00
2022-08-28T12:15:39.399Z,80.00
2022-08-28T12:16:39.347Z,80.00
2022-08-28T12:17:39.340Z,80.00
2022-08-28T12:18:39.338Z,80.00
2022-08-28T12:19:51.177Z,80.00
2022-08-28T12:20:40.298Z,80.00
2022-08-28T12:21:39.286Z,80.00
2022-08-28T12:22:39.281Z,80.00
2022-08-28T12:23:39.839Z,80.00
2022-08-28T12:24:39.251Z,76.00
2022-08-28T12:25:39.243Z,80.00
2022-08-28T12:26:39.240Z,80.00
2022-08-28T12:27:39.221Z,76.00
2022-08-28T12:28:39.310Z,76.00
2022-08-28T12:29:39.191Z,76.00
2022-08-28T12:30:39.226Z,76.00
2022-08-28T12:31:39.163Z,76.00
2022-08-28T12:32:39.153Z,80.00
2022-08-28T12:33:39.163Z,76.00
2022-08-28T12:34:39.136Z,80.00
2022-08-28T12:35:39.124Z,80.00
2022-08-28T12:36:39.123Z,80.00
2022-08-28T12:37:50.986Z,76.00
2022-08-28T12:38:40.114Z,76.00
2022-08-28T12:39:39.326Z,80.00
2022-08-28T12:40:39.133Z,80.00
2022-08-28T12:41:40.008Z,76.00
2022-08-28T12:42:39.056Z,76.00
2022-08-28T12:43:41.738Z,76.00
2022-08-28T12:44:40.034Z,76.00
2022-08-28T12:45:40.556Z,76.00
2022-08-28T12:46:39.070Z,76.00
2022-08-28T12:47:39.770Z,80.00
2022-08-28T12:48:39.000Z,76.00
2022-08-28T12:49:39.279Z,80.00
2022-08-28T12:50:38.959Z,76.00
2022-08-28T12:51:39.079Z,76.00
2022-08-28T12:52:38.940Z,76.00
2022-08-28T12:53:38.942Z,76.00
2022-08-28T12:54:38.911Z,76.00
2022-08-28T12:55:38.911Z,80.00
2022-08-28T12:56:38.910Z,76.00
2022-08-28T12:57:39.661Z,76.00
2022-08-28T12:58:38.894Z,76.00
2022-08-28T12:59:39.643Z,76.00
2022-08-28T13:00:39.064Z,76.00
2022-08-28T13:01:39.033Z,76.00
2022-08-28T13:02:38.848Z,76.00
2022-08-28T13:03:38.844Z,76.00
2022-08-28T13:04:38.803Z,80.00